FOOG

Details ICAO FOOG (POG)
Name Port Gentil
Region Gabon
Timezone Africa/Libreville (UTC+1.0)
Plans Departing 11
Arriving 19
Stats Elevation 13 ft / 4 m (AMSL)
Location -0.711739° 8.754382°
Runways 1
Magnetic Variation 2.425° W
Sunrise 2017-12-14 05:16:12 UTC / 2017-12-14 06:16:12 Local
Sunset 2017-12-14 17:25:54 UTC / 2017-12-14 18:25:54 Local
Advertisement - Login to hide

Runways

ID Width Length Bearing (true) Bearing (mag) Surface Threshold Offset Overrun Length
03 148 ft / 45 m 6,265 ft / 1,910 m 22.17° 24.59° Asphalt 0 ft / 0 m 0 ft / 0 m
21 148 ft / 45 m 6,265 ft / 1,910 m 202.17° 204.59° Asphalt 0 ft / 0 m 197 ft / 60 m

Map

Weather


0- 5 10 15 20 25 30 35+ Temperature / ° C

Clouds and Precipitation
Forecast for 2017-12-14 06:00 UTC. Updated 2 hours ago

Ground ~20,000 ft ~40,000 ft Winds

METAR

Not found

TAF

TAF FOOG 132300Z 1400/1424 20006KT 9999 SCT010 FEW020CB BKN030 PROB30 TEMPO 1403/1409 4000 TSRA BKN006 FEW016CB OVC026

Frequencies

Tower 118.30 MHz TWR
Warning: Do not use this data for real-world aviation or navigation. No guarantee of current accuracy is given.